Time;durP1;ratioP1;P1;durP2;ratioP2;P2;SDS_P1;SDS_P2;PMS_P1;PMS_P2;Temp;Humidity;BMP_temperature;BMP_pressure;BME280_temperature;BME280_humidity;BME280_pressure;Samples;Min_cycle;Max_cycle;Signal;HPM_P1;HPM_P2
2022/01/15 00:00:53;;;;;;;17.80;7.63;;;6.80;99.90;;;;;;4821903;29;20350;-65
2022/01/15 00:03:18;;;;;;;18.73;7.40;;;6.80;99.90;;;;;;4854021;29;20053;-65
2022/01/15 00:05:45;;;;;;;18.00;7.80;;;6.80;99.90;;;;;;4854458;29;20145;-65
2022/01/15 00:08:11;;;;;;;16.40;8.40;;;6.80;99.90;;;;;;4836354;29;20104;-65
2022/01/15 00:10:37;;;;;;;14.88;7.00;;;6.80;99.90;;;;;;4854429;29;20407;-65
2022/01/15 00:13:07;;;;;;;14.55;6.75;;;6.80;99.90;;;;;;4836721;29;20089;-65
2022/01/15 00:15:37;;;;;;;13.07;7.40;;;6.80;99.90;;;;;;4821596;29;20171;-65
2022/01/15 00:18:15;;;;;;;29.08;7.78;;;6.80;99.90;;;;;;4836787;29;20106;-65
2022/01/15 00:20:41;;;;;;;23.98;7.20;;;6.80;99.90;;;;;;4807832;29;20190;-65
2022/01/15 00:23:07;;;;;;;32.60;7.13;;;6.80;99.90;;;;;;4853442;29;20054;-65
2022/01/15 00:25:33;;;;;;;33.80;7.13;;;6.70;99.90;;;;;;4814939;29;20061;-65
2022/01/15 00:28:00;;;;;;;21.15;5.95;;;6.70;99.90;;;;;;4846568;29;20121;-65
2022/01/15 00:30:27;;;;;;;33.58;6.15;;;6.80;99.90;;;;;;4853376;29;20118;-65
2022/01/15 00:32:53;;;;;;;19.13;5.72;;;6.70;99.90;;;;;;4853423;29;20050;-65
2022/01/15 00:35:21;;;;;;;49.63;6.63;;;6.70;99.90;;;;;;4853963;29;20072;-65
2022/01/15 00:37:47;;;;;;;26.08;6.00;;;6.70;99.90;;;;;;4836290;29;20077;-64
2022/01/15 00:40:15;;;;;;;85.10;6.72;;;6.70;99.90;;;;;;4853396;29;20042;-65
2022/01/15 00:42:41;;;;;;;76.20;8.45;;;6.70;99.90;;;;;;4836448;29;20077;-65
2022/01/15 00:45:12;;;;;;;88.35;9.95;;;6.60;99.90;;;;;;4836532;29;20477;-65
2022/01/15 00:47:37;;;;;;;58.45;6.07;;;6.60;99.90;;;;;;4836239;29;20057;-65
2022/01/15 00:50:06;;;;;;;40.97;5.18;;;6.60;99.90;;;;;;4836585;29;20164;-65
2022/01/15 00:52:31;;;;;;;39.53;6.40;;;6.70;99.90;;;;;;4833303;29;20118;-65
2022/01/15 00:54:57;;;;;;;62.53;6.40;;;6.70;99.90;;;;;;4836539;29;20057;-65
2022/01/15 00:57:23;;;;;;;24.77;5.10;;;6.60;99.90;;;;;;4836155;29;20458;-64
2022/01/15 00:59:49;;;;;;;30.05;3.90;;;6.60;99.90;;;;;;4852998;29;20057;-64
2022/01/15 01:02:15;;;;;;;10.95;3.45;;;6.60;99.90;;;;;;4836082;29;20110;-65
2022/01/15 01:04:41;;;;;;;9.70;3.10;;;6.60;99.90;;;;;;4851595;29;20137;-65
2022/01/15 01:07:06;;;;;;;37.83;4.60;;;6.50;99.90;;;;;;4836320;29;20098;-65
2022/01/15 01:12:25;;;;;;;9.65;3.22;;;6.60;99.90;;;;;;4835638;29;20093;-65
2022/01/15 01:20:31;;;;;;;7.43;3.50;;;6.60;99.90;;;;;;4852882;29;20050;-65
2022/01/15 01:22:58;;;;;;;19.55;4.35;;;6.60;99.90;;;;;;4852400;29;20093;-65
2022/01/15 01:25:31;;;;;;;30.85;4.50;;;6.60;99.90;;;;;;4829770;29;20069;-65
2022/01/15 01:28:04;;;;;;;8.02;3.03;;;6.60;99.90;;;;;;4819344;29;20058;-65
2022/01/15 01:30:36;;;;;;;6.97;2.85;;;6.60;99.90;;;;;;4852747;29;20073;-65
2022/01/15 01:33:29;;;;;;;8.00;3.03;;;6.50;99.90;;;;;;4835558;29;20065;-65
2022/01/15 01:36:34;;;;;;;;;;;;;;;;;;;;;
2022/01/15 01:39:06;;;;;;;7.15;2.90;;;6.60;99.90;;;;;;4852336;29;20133;-65
2022/01/15 01:41:34;;;;;;;5.53;2.50;;;6.60;99.90;;;;;;4835516;29;20061;-64
2022/01/15 01:44:02;;;;;;;5.00;2.05;;;6.50;99.90;;;;;;4852280;29;20061;-65
2022/01/15 01:48:56;;;;;;;4.25;2.40;;;6.50;99.90;;;;;;4835200;29;20122;-65
2022/01/15 01:51:26;;;;;;;4.03;2.13;;;6.50;99.90;;;;;;4852620;29;20550;-65
2022/01/15 01:53:53;;;;;;;4.13;2.50;;;6.50;99.90;;;;;;4835277;29;20053;-65
2022/01/15 01:56:19;;;;;;;10.95;3.08;;;6.50;99.90;;;;;;4835781;29;20109;-65
2022/01/15 01:58:45;;;;;;;;;;;6.50;99.90;;;;;;4835963;29;20049;-65
2022/01/15 02:01:11;;;;;;;12.13;3.00;;;6.40;99.90;;;;;;4835444;29;19924;-65
2022/01/15 02:03:37;;;;;;;24.40;4.33;;;6.40;99.90;;;;;;4852157;29;20060;-65
2022/01/15 02:06:03;;;;;;;16.05;3.50;;;6.40;99.90;;;;;;4851981;29;20042;-65
2022/01/15 02:08:32;;;;;;;50.47;4.90;;;6.40;99.90;;;;;;4835094;29;20827;-64
2022/01/15 02:10:59;;;;;;;22.92;3.88;;;6.40;99.90;;;;;;4852070;29;20082;-65
2022/01/15 02:13:25;;;;;;;16.00;3.40;;;6.40;99.90;;;;;;4834585;29;20042;-65
2022/01/15 02:15:51;;;;;;;15.23;3.00;;;6.40;99.90;;;;;;4852274;29;20042;-65
2022/01/15 02:18:16;;;;;;;6.13;2.57;;;6.30;99.90;;;;;;4851775;29;20056;-65
2022/01/15 02:21:02;;;;;;;11.13;2.63;;;6.30;99.90;;;;;;4851703;29;20065;-65
2022/01/15 02:23:35;;;;;;;12.88;2.58;;;6.30;99.90;;;;;;4834791;29;20061;-65
2022/01/15 02:26:07;;;;;;;7.57;2.30;;;6.30;99.90;;;;;;4824540;29;20090;-64
2022/01/15 02:28:38;;;;;;;7.50;2.20;;;6.30;99.90;;;;;;4822835;29;20113;-65
2022/01/15 02:31:07;;;;;;;9.93;2.50;;;6.40;99.90;;;;;;4835191;29;20114;-65
2022/01/15 02:33:33;;;;;;;8.23;2.15;;;6.40;99.90;;;;;;4834724;29;20073;-65
2022/01/15 02:36:00;;;;;;;9.95;2.30;;;6.40;99.90;;;;;;4834392;29;20137;-65
2022/01/15 02:38:26;;;;;;;;;;;6.40;99.90;;;;;;4850392;29;20061;-65
2022/01/15 02:40:52;;;;;;;6.07;2.47;;;6.30;99.90;;;;;;4823308;29;19925;-65
2022/01/15 02:43:21;;;;;;;6.13;2.30;;;6.30;99.90;;;;;;4816889;29;20069;-65
2022/01/15 02:45:55;;;;;;;4.57;2.45;;;6.30;99.90;;;;;;4844527;29;20046;-65
2022/01/15 02:48:25;;;;;;;18.75;3.55;;;6.40;99.90;;;;;;4834646;29;20061;-65
2022/01/15 02:50:51;;;;;;;6.95;2.40;;;6.40;99.90;;;;;;4834799;29;20070;-65
2022/01/15 02:53:17;;;;;;;6.88;2.28;;;6.40;99.90;;;;;;4851360;29;20057;-65
2022/01/15 02:55:46;;;;;;;4.28;2.33;;;6.40;99.90;;;;;;4834352;29;20064;-65
2022/01/15 02:58:13;;;;;;;8.82;2.85;;;6.40;99.90;;;;;;4851327;29;20053;-65
2022/01/15 03:00:39;;;;;;;7.88;2.58;;;6.40;99.90;;;;;;4814998;29;20042;-64
2022/01/15 03:03:05;;;;;;;7.22;2.83;;;6.40;99.90;;;;;;4834807;29;20078;-65
2022/01/15 03:05:31;;;;;;;9.35;2.92;;;6.40;99.90;;;;;;4834582;29;20080;-65
2022/01/15 03:07:56;;;;;;;7.47;3.20;;;6.40;99.90;;;;;;4850640;29;20106;-64
2022/01/15 03:10:22;;;;;;;8.67;3.17;;;6.40;99.90;;;;;;4819305;29;20358;-65
2022/01/15 03:12:47;;;;;;;8.87;3.20;;;6.40;99.90;;;;;;4851283;29;20110;-65
2022/01/15 03:15:19;;;;;;;10.37;3.40;;;6.40;99.90;;;;;;4851020;29;20307;-64
2022/01/15 03:17:48;;;;;;;11.18;2.97;;;6.40;99.90;;;;;;4833907;29;20057;-65
2022/01/15 03:20:17;;;;;;;7.38;3.40;;;6.40;99.90;;;;;;4834233;29;20069;-65
2022/01/15 03:22:44;;;;;;;15.68;3.85;;;6.40;99.90;;;;;;4827148;29;20082;-64
2022/01/15 03:25:11;;;;;;;7.00;3.33;;;6.40;99.90;;;;;;4831797;29;20133;-65
2022/01/15 03:27:37;;;;;;;7.40;3.08;;;6.40;99.90;;;;;;4834372;29;20132;-65
2022/01/15 03:30:05;;;;;;;8.88;3.47;;;6.40;99.90;;;;;;4834046;29;20054;-65
2022/01/15 03:32:31;;;;;;;5.80;3.25;;;6.40;99.90;;;;;;4849782;29;20124;-65
2022/01/15 03:34:56;;;;;;;11.00;3.47;;;6.40;99.90;;;;;;4851210;29;20129;-65
2022/01/15 03:37:22;;;;;;;9.20;3.67;;;6.40;99.90;;;;;;4850622;29;20194;-65
2022/01/15 03:39:48;;;;;;;6.77;3.40;;;6.30;99.90;;;;;;4833553;29;20062;-64
2022/01/15 03:42:14;;;;;;;6.87;3.50;;;6.30;99.90;;;;;;4834255;29;20129;-64
2022/01/15 03:44:45;;;;;;;7.13;3.10;;;6.30;99.90;;;;;;4834322;29;20425;-65
2022/01/15 03:47:12;;;;;;;5.18;3.20;;;6.30;99.90;;;;;;4850736;29;20050;-65
2022/01/15 03:49:39;;;;;;;6.68;3.35;;;6.30;99.90;;;;;;4830999;29;20045;-64
2022/01/15 03:52:06;;;;;;;6.68;3.92;;;6.30;99.90;;;;;;4845675;29;20509;-64
2022/01/15 03:54:33;;;;;;;7.97;3.85;;;6.30;99.90;;;;;;4834129;29;20060;-64
2022/01/15 03:56:59;;;;;;;8.32;4.20;;;6.30;99.90;;;;;;4850290;29;20089;-65
2022/01/15 03:59:25;;;;;;;7.70;3.83;;;6.30;99.90;;;;;;4850771;29;20142;-65
2022/01/15 04:01:51;;;;;;;8.43;4.20;;;6.30;99.90;;;;;;4833608;29;20078;-65
2022/01/15 04:04:17;;;;;;;9.60;4.40;;;6.30;99.90;;;;;;4833833;29;20432;-65
2022/01/15 04:06:43;;;;;;;8.07;3.90;;;6.30;99.90;;;;;;4833890;29;20053;-64
2022/01/15 04:09:11;;;;;;;7.07;3.67;;;6.30;99.90;;;;;;4850399;29;20054;-65
2022/01/15 04:11:37;;;;;;;9.13;4.30;;;6.30;99.90;;;;;;4833231;29;20060;-65
2022/01/15 04:14:03;;;;;;;8.10;4.32;;;6.30;99.90;;;;;;4850641;29;20129;-65
2022/01/15 04:16:29;;;;;;;6.35;3.65;;;6.30;99.90;;;;;;4833653;29;20062;-65
2022/01/15 04:18:58;;;;;;;6.47;3.75;;;6.30;99.90;;;;;;4850468;29;20050;-65
2022/01/15 04:21:25;;;;;;;10.88;3.78;;;6.40;99.90;;;;;;4833307;29;20045;-65
2022/01/15 04:23:51;;;;;;;8.18;4.07;;;6.30;99.90;;;;;;4850294;29;20057;-64
2022/01/15 04:26:22;;;;;;;6.55;3.63;;;6.40;99.90;;;;;;4850045;29;20073;-65
2022/01/15 04:28:48;;;;;;;8.00;4.35;;;6.40;99.90;;;;;;4850468;29;20114;-65
2022/01/15 04:31:20;;;;;;;9.15;4.10;;;6.40;99.90;;;;;;4834446;29;20060;-65
2022/01/15 04:33:46;;;;;;;12.63;5.18;;;6.40;99.90;;;;;;4833569;29;20137;-65
2022/01/15 04:36:13;;;;;;;11.88;5.35;;;6.40;99.90;;;;;;4852608;29;20144;-64
2022/01/15 04:38:40;;;;;;;11.70;4.80;;;6.40;99.90;;;;;;4852174;29;20181;-65
2022/01/15 04:41:07;;;;;;;9.15;4.80;;;6.40;99.90;;;;;;4853275;29;20113;-65
2022/01/15 04:43:34;;;;;;;8.55;4.43;;;6.40;99.90;;;;;;4853507;29;20142;-65
2022/01/15 04:45:59;;;;;;;10.20;4.82;;;6.40;99.90;;;;;;4836762;29;20109;-65
2022/01/15 04:48:25;;;;;;;9.63;4.73;;;6.40;99.90;;;;;;4853551;29;20061;-64
2022/01/15 04:50:51;;;;;;;11.18;4.93;;;6.40;99.90;;;;;;4818308;29;20188;-65
2022/01/15 04:53:17;;;;;;;13.67;4.73;;;6.40;99.90;;;;;;4846937;29;20045;-64
2022/01/15 04:55:42;;;;;;;11.02;4.25;;;6.30;99.90;;;;;;4836455;29;20077;-65
2022/01/15 04:58:08;;;;;;;8.60;4.57;;;6.40;99.90;;;;;;4836529;29;20110;-66
2022/01/15 05:00:35;;;;;;;8.75;4.60;;;6.40;99.90;;;;;;4836332;29;20038;-65
2022/01/15 05:03:01;;;;;;;8.57;4.45;;;6.30;99.90;;;;;;4836174;29;20137;-65
2022/01/15 05:05:29;;;;;;;11.40;4.63;;;6.40;99.90;;;;;;4853250;29;20073;-65
2022/01/15 05:07:55;;;;;;;10.45;4.85;;;6.30;99.90;;;;;;4836236;29;20053;-65
2022/01/15 05:10:28;;;;;;;11.32;5.00;;;6.30;99.90;;;;;;4853123;29;20054;-65
2022/01/15 05:12:59;;;;;;;13.27;5.00;;;6.30;99.90;;;;;;4836028;29;20060;-65
2022/01/15 05:15:24;;;;;;;13.50;5.28;;;6.30;99.90;;;;;;4836230;29;20418;-64
2022/01/15 05:17:51;;;;;;;14.57;5.93;;;6.30;99.90;;;;;;4851304;29;20058;-65
2022/01/15 05:20:18;;;;;;;;;;;6.30;99.90;;;;;;4853439;29;20084;-65
2022/01/15 05:22:45;;;;;;;18.45;6.70;;;6.20;99.90;;;;;;4835824;29;19924;-65
2022/01/15 05:25:16;;;;;;;14.88;6.35;;;6.20;99.90;;;;;;4851616;29;20068;-65
2022/01/15 05:27:43;;;;;;;11.63;6.13;;;6.20;99.90;;;;;;4835942;29;20118;-65
2022/01/15 05:30:09;;;;;;;11.00;5.63;;;6.20;99.90;;;;;;4834634;29;20122;-65
2022/01/15 05:32:35;;;;;;;14.15;5.88;;;6.20;99.90;;;;;;4817948;29;20058;-65
2022/01/15 05:35:01;;;;;;;9.85;5.28;;;6.30;99.90;;;;;;4852867;29;20144;-65
2022/01/15 05:37:27;;;;;;;11.85;5.35;;;6.20;99.90;;;;;;4835707;29;20557;-65
2022/01/15 05:39:53;;;;;;;12.75;5.82;;;6.20;99.90;;;;;;4850910;29;20071;-65
2022/01/15 05:42:19;;;;;;;11.00;4.75;;;6.20;99.90;;;;;;4835793;29;20058;-65
2022/01/15 05:44:45;;;;;;;10.98;4.82;;;6.20;99.90;;;;;;4807221;29;20050;-65
2022/01/15 05:47:11;;;;;;;7.97;4.07;;;6.20;99.90;;;;;;4832708;29;20049;-65
2022/01/15 05:49:37;;;;;;;6.55;3.85;;;6.20;99.90;;;;;;4835879;29;20046;-65
2022/01/15 05:52:04;;;;;;;7.32;4.47;;;6.20;99.90;;;;;;4820526;29;20138;-65
2022/01/15 05:54:30;;;;;;;;;;;6.20;99.90;;;;;;4836016;29;20065;-65
2022/01/15 05:56:56;;;;;;;11.77;5.30;;;6.20;99.90;;;;;;4852288;29;20007;-65
2022/01/15 05:59:21;;;;;;;11.68;5.25;;;6.20;99.90;;;;;;4852227;29;20152;-65
2022/01/15 06:01:47;;;;;;;16.50;5.75;;;6.20;99.90;;;;;;4835651;29;20069;-65
2022/01/15 06:04:13;;;;;;;16.48;6.07;;;6.20;99.90;;;;;;4835384;29;20121;-65
2022/01/15 06:06:38;;;;;;;12.93;5.53;;;6.20;99.90;;;;;;4835697;29;20054;-65
2022/01/15 06:09:04;;;;;;;12.30;6.13;;;6.20;99.90;;;;;;4851541;29;20044;-65
2022/01/15 06:11:31;;;;;;;13.23;5.57;;;6.20;99.90;;;;;;4851997;29;20804;-65
2022/01/15 06:13:57;;;;;;;8.80;5.30;;;6.20;99.90;;;;;;4850500;29;20061;-65
2022/01/15 06:16:23;;;;;;;12.20;5.75;;;6.20;99.90;;;;;;4835363;29;20054;-65
2022/01/15 06:18:49;;;;;;;11.23;5.38;;;6.20;99.90;;;;;;4834679;29;20110;-65
2022/01/15 06:21:15;;;;;;;7.82;4.72;;;6.20;99.90;;;;;;4851634;29;20050;-65
2022/01/15 06:23:40;;;;;;;10.53;4.90;;;6.20;99.90;;;;;;4817073;29;20086;-65
2022/01/15 06:26:06;;;;;;;9.60;4.93;;;6.20;99.90;;;;;;4826259;29;20049;-65
2022/01/15 06:28:32;;;;;;;9.53;4.93;;;6.20;99.90;;;;;;4823496;29;20069;-65
2022/01/15 06:30:58;;;;;;;9.80;5.38;;;6.20;99.90;;;;;;4834795;29;20306;-65
2022/01/15 06:33:23;;;;;;;15.65;5.72;;;6.20;99.90;;;;;;4834911;29;20077;-65
2022/01/15 06:35:49;;;;;;;11.87;5.83;;;6.20;99.90;;;;;;4851811;29;20083;-64
2022/01/15 06:38:15;;;;;;;13.65;5.88;;;6.10;99.90;;;;;;4850107;29;20062;-65
2022/01/15 06:40:40;;;;;;;12.97;5.50;;;6.20;99.90;;;;;;4851455;29;20071;-65
2022/01/15 06:43:06;;;;;;;15.83;6.00;;;6.10;99.90;;;;;;4835066;29;20061;-65
2022/01/15 06:45:33;;;;;;;13.70;5.88;;;6.10;99.90;;;;;;4851633;29;20062;-65
2022/01/15 06:47:59;;;;;;;14.23;5.63;;;6.10;99.90;;;;;;4834777;29;20056;-64
2022/01/15 06:50:27;;;;;;;15.93;6.07;;;6.10;99.90;;;;;;4851363;29;20424;-65
2022/01/15 06:52:53;;;;;;;16.77;6.28;;;6.10;99.90;;;;;;4851348;29;20073;-65
2022/01/15 06:55:19;;;;;;;13.15;5.60;;;6.10;99.90;;;;;;4851115;29;20064;-65
2022/01/15 06:57:45;;;;;;;10.77;5.00;;;6.10;99.90;;;;;;4834227;29;20054;-65
2022/01/15 07:00:11;;;;;;;13.83;5.53;;;6.10;99.90;;;;;;4851568;29;20056;-65
2022/01/15 07:02:38;;;;;;;10.95;4.97;;;6.10;99.90;;;;;;4850610;29;20422;-65
2022/01/15 07:05:06;;;;;;;12.20;5.20;;;6.10;99.90;;;;;;4849574;29;20049;-65
2022/01/15 07:07:32;;;;;;;13.70;4.85;;;6.10;99.90;;;;;;4834479;29;20056;-65
2022/01/15 07:09:58;;;;;;;12.00;4.82;;;6.10;99.90;;;;;;4834716;29;20064;-65
2022/01/15 07:12:24;;;;;;;12.93;4.95;;;6.10;99.90;;;;;;4841648;29;20352;-65
2022/01/15 07:14:50;;;;;;;22.75;6.82;;;6.10;99.90;;;;;;4834606;29;20045;-65
2022/01/15 07:17:15;;;;;;;12.47;5.80;;;6.10;99.90;;;;;;4834274;29;20178;-65
2022/01/15 07:19:41;;;;;;;19.08;5.70;;;6.10;99.90;;;;;;4850928;29;20090;-66
2022/01/15 07:22:07;;;;;;;11.68;5.43;;;6.10;99.90;;;;;;4833474;29;20069;-65
2022/01/15 07:24:33;;;;;;;12.32;5.10;;;6.10;99.90;;;;;;4850772;29;20537;-65
2022/01/15 07:26:59;;;;;;;8.07;4.88;;;6.10;99.90;;;;;;4845359;29;20049;-65
2022/01/15 07:29:29;;;;;;;11.32;5.20;;;6.00;99.90;;;;;;4817424;29;20099;-66
2022/01/15 07:31:55;;;;;;;12.00;4.88;;;6.00;99.90;;;;;;4850941;29;20129;-65
2022/01/15 07:34:25;;;;;;;9.63;5.20;;;6.00;99.90;;;;;;4848697;29;20137;-67
2022/01/15 07:36:54;;;;;;;18.23;5.15;;;6.00;99.90;;;;;;4833548;29;20649;-65
2022/01/15 07:39:20;;;;;;;12.38;5.43;;;6.00;99.90;;;;;;4832093;29;20069;-66
2022/01/15 07:41:46;;;;;;;21.85;6.30;;;6.00;99.90;;;;;;4817868;29;20062;-68
2022/01/15 07:44:12;;;;;;;12.50;6.30;;;6.00;99.90;;;;;;4849754;29;20106;-67
2022/01/15 07:46:38;;;;;;;15.67;6.20;;;6.00;99.90;;;;;;4850561;29;20110;-67
2022/01/15 07:49:03;;;;;;;13.93;5.77;;;6.00;99.90;;;;;;4850109;29;20041;-66
2022/01/15 07:51:29;;;;;;;8.52;4.93;;;6.00;99.90;;;;;;4849281;29;20486;-68
2022/01/15 07:53:55;;;;;;;9.60;4.80;;;6.00;99.90;;;;;;4833137;29;20156;-68
2022/01/15 07:56:21;;;;;;;9.73;5.35;;;6.00;99.90;;;;;;4828240;29;20058;-67
2022/01/15 07:58:47;;;;;;;10.65;4.97;;;6.00;99.90;;;;;;4815656;29;20076;-68
2022/01/15 08:01:13;;;;;;;8.60;4.53;;;6.00;99.90;;;;;;4832083;29;20113;-68
2022/01/15 08:03:40;;;;;;;8.07;4.87;;;6.00;99.90;;;;;;4850475;29;20192;-67
2022/01/15 08:06:06;;;;;;;7.75;4.22;;;6.00;99.90;;;;;;4833656;29;20367;-67
2022/01/15 08:08:33;;;;;;;7.55;4.00;;;6.00;99.90;;;;;;4850564;29;20106;-68
2022/01/15 08:10:59;;;;;;;5.75;3.85;;;5.90;99.90;;;;;;4836014;29;20060;-67
2022/01/15 08:13:25;;;;;;;11.43;4.90;;;5.90;99.90;;;;;;4836328;29;20106;-68
2022/01/15 08:15:54;;;;;;;6.82;4.20;;;5.90;99.90;;;;;;4854026;29;20538;-68
2022/01/15 08:18:21;;;;;;;7.95;4.43;;;6.00;99.90;;;;;;4837171;29;20057;-67
2022/01/15 08:20:48;;;;;;;7.68;4.20;;;6.00;99.90;;;;;;4837423;29;20056;-68
2022/01/15 08:23:13;;;;;;;;;;;5.90;99.90;;;;;;4836986;29;20054;-68
2022/01/15 08:25:40;;;;;;;9.77;4.30;;;5.90;99.90;;;;;;4829878;29;19935;-65
2022/01/15 08:28:05;;;;;;;7.10;4.32;;;5.90;99.90;;;;;;4836126;29;20137;-67
2022/01/15 08:30:31;;;;;;;8.23;4.70;;;5.90;99.90;;;;;;4853912;29;20180;-67
2022/01/15 08:32:57;;;;;;;7.30;4.75;;;5.90;99.90;;;;;;4836795;29;20299;-70
2022/01/15 08:35:23;;;;;;;9.57;5.10;;;5.90;99.90;;;;;;4818753;29;20134;-68
2022/01/15 08:37:49;;;;;;;8.57;4.85;;;5.90;99.90;;;;;;4833468;29;20088;-70
2022/01/15 08:40:17;;;;;;;6.68;4.40;;;5.90;99.90;;;;;;4836710;29;20102;-66
2022/01/15 08:42:42;;;;;;;7.13;4.43;;;5.90;99.90;;;;;;4853633;29;20420;-71
2022/01/15 08:45:10;;;;;;;7.70;4.10;;;5.90;99.90;;;;;;4853861;29;20110;-71
2022/01/15 08:47:37;;;;;;;6.95;4.30;;;5.90;99.90;;;;;;4852973;29;20802;-67
2022/01/15 08:50:04;;;;;;;5.82;3.80;;;6.00;99.90;;;;;;4852361;29;20050;-67
2022/01/15 08:52:30;;;;;;;8.00;3.95;;;6.00;99.90;;;;;;4853161;29;20113;-67
2022/01/15 08:54:55;;;;;;;6.33;4.13;;;6.00;99.90;;;;;;4836789;29;20064;-67
2022/01/15 08:57:21;;;;;;;8.00;4.37;;;6.00;99.90;;;;;;4820623;29;20076;-67
2022/01/15 08:59:47;;;;;;;6.37;4.13;;;5.90;99.90;;;;;;4836583;29;20089;-67
2022/01/15 09:02:12;;;;;;;7.90;4.43;;;5.90;99.90;;;;;;4836936;29;20299;-67
2022/01/15 09:04:38;;;;;;;9.20;4.60;;;5.90;99.90;;;;;;4821561;29;20064;-67
2022/01/15 09:07:04;;;;;;;5.43;3.80;;;6.00;99.90;;;;;;4853426;29;20066;-67
2022/01/15 09:09:30;;;;;;;7.73;4.00;;;6.00;99.90;;;;;;4836017;29;20085;-67
2022/01/15 09:11:55;;;;;;;6.20;4.70;;;6.00;99.90;;;;;;4853647;29;20052;-67
2022/01/15 09:14:21;;;;;;;7.30;4.13;;;6.00;99.90;;;;;;4853114;29;20129;-67
2022/01/15 09:16:47;;;;;;;7.20;4.20;;;6.00;99.90;;;;;;4836620;29;20062;-67
2022/01/15 09:19:13;;;;;;;7.20;4.18;;;6.00;99.90;;;;;;4836166;29;20058;-67
2022/01/15 09:21:39;;;;;;;6.38;3.90;;;6.00;99.90;;;;;;4836068;29;20057;-67
2022/01/15 09:24:05;;;;;;;8.57;4.35;;;6.00;99.90;;;;;;4834187;29;20046;-67
2022/01/15 09:31:57;;;;;;;8.13;4.03;;;6.00;99.90;;;;;;4836233;29;20192;-67
2022/01/15 09:34:22;;;;;;;5.90;3.90;;;6.00;99.90;;;;;;4835920;29;20511;-67
2022/01/15 09:36:48;;;;;;;6.20;3.93;;;6.00;99.90;;;;;;4836139;29;20383;-66
2022/01/15 09:39:14;;;;;;;5.57;3.60;;;6.00;99.90;;;;;;4852678;29;20065;-71
2022/01/15 09:41:46;;;;;;;7.53;4.18;;;6.00;99.90;;;;;;4852584;29;20041;-71
2022/01/15 09:44:13;;;;;;;6.68;3.80;;;6.00;99.90;;;;;;4852146;29;20050;-69
2022/01/15 09:46:40;;;;;;;5.20;3.60;;;6.00;99.90;;;;;;4834971;29;20061;-68
2022/01/15 09:49:06;;;;;;;;;;;6.00;99.90;;;;;;4835289;29;20045;-69
2022/01/15 09:51:32;;;;;;;6.55;3.83;;;6.00;99.90;;;;;;4852526;29;20001;-70
2022/01/15 09:53:58;;;;;;;6.70;3.90;;;6.00;99.90;;;;;;4850702;29;20049;-66
2022/01/15 09:56:24;;;;;;;6.60;4.10;;;6.10;99.90;;;;;;4812920;29;20374;-66
2022/01/15 09:58:50;;;;;;;7.53;4.73;;;6.00;99.90;;;;;;4835496;29;20057;-69
2022/01/15 10:01:16;;;;;;;8.75;5.22;;;6.00;99.90;;;;;;4835754;29;20881;-69
2022/01/15 10:03:41;;;;;;;9.00;5.63;;;6.00;99.90;;;;;;4835765;29;20117;-71
2022/01/15 10:06:07;;;;;;;13.90;6.13;;;6.00;99.90;;;;;;4835317;29;20064;-70
2022/01/15 10:08:33;;;;;;;9.93;5.87;;;6.00;99.90;;;;;;4820133;29;20069;-72
2022/01/15 10:11:05;;;;;;;9.70;6.35;;;6.00;99.90;;;;;;4852300;29;20038;-71
2022/01/15 10:13:32;;;;;;;11.95;6.72;;;6.00;99.90;;;;;;4835702;29;20403;-71
2022/01/15 10:15:57;;;;;;;11.63;7.25;;;6.00;99.90;;;;;;4851822;29;20050;-70
2022/01/15 10:18:28;;;;;;;15.37;7.77;;;6.10;99.90;;;;;;4852143;29;20116;-75
2022/01/15 10:21:08;;;;;;;11.90;7.10;;;6.10;99.90;;;;;;4835227;29;20364;-71
2022/01/15 10:23:53;;;;;;;13.48;7.20;;;6.10;99.90;;;;;;4834850;29;20102;-69
2022/01/15 10:26:28;;;;;;;14.02;7.95;;;6.10;99.90;;;;;;4845880;29;20085;-70
2022/01/15 10:28:58;;;;;;;13.25;8.43;;;6.20;99.90;;;;;;4844265;29;20478;-70
2022/01/15 10:31:29;;;;;;;13.63;8.35;;;6.20;99.90;;;;;;4846206;29;20053;-70
2022/01/15 10:33:57;;;;;;;17.33;9.60;;;6.20;99.90;;;;;;4851474;29;20130;-68
2022/01/15 10:36:25;;;;;;;15.98;9.05;;;6.20;99.90;;;;;;4813621;29;20129;-68
2022/01/15 10:38:52;;;;;;;18.08;10.27;;;6.20;99.90;;;;;;4851222;29;20049;-68
2022/01/15 10:41:36;;;;;;;17.48;9.85;;;6.20;99.90;;;;;;4835125;29;20061;-69
2022/01/15 10:44:22;;;;;;;18.85;10.75;;;6.20;99.90;;;;;;4835238;29;20061;-68
2022/01/15 10:46:47;;;;;;;16.35;10.05;;;6.20;99.90;;;;;;4834683;29;20085;-68
2022/01/15 10:49:25;;;;;;;16.23;10.17;;;6.20;99.90;;;;;;4851404;29;20053;-68
2022/01/15 10:52:11;;;;;;;14.57;9.48;;;6.20;99.90;;;;;;4834568;29;20072;-68
2022/01/15 10:54:58;;;;;;;15.73;9.45;;;6.20;99.90;;;;;;4834523;29;20109;-68
2022/01/15 10:57:27;;;;;;;15.65;9.63;;;6.20;99.90;;;;;;4851205;29;20054;-68
2022/01/15 11:00:16;;;;;;;14.00;9.68;;;6.20;99.90;;;;;;4834735;29;20053;-73
2022/01/15 11:02:51;;;;;;;16.48;9.88;;;6.20;99.90;;;;;;4851174;29;20054;-68
2022/01/15 11:05:19;;;;;;;17.17;10.30;;;6.20;99.90;;;;;;4815609;29;20150;-75
2022/01/15 11:07:45;;;;;;;15.55;9.27;;;6.20;99.90;;;;;;4818578;29;20085;-69
2022/01/15 11:10:11;;;;;;;19.60;10.32;;;6.20;99.90;;;;;;4834622;29;20049;-69
2022/01/15 11:12:37;;;;;;;15.55;9.02;;;6.20;99.90;;;;;;4834372;29;20050;-69
2022/01/15 11:15:03;;;;;;;15.10;8.50;;;6.20;99.90;;;;;;4851296;29;20082;-69
2022/01/15 11:17:29;;;;;;;17.45;9.73;;;6.20;99.90;;;;;;4834218;29;20141;-70
2022/01/15 11:19:55;;;;;;;14.03;8.23;;;6.20;99.90;;;;;;4850190;29;20154;-67
2022/01/15 11:22:22;;;;;;;14.35;8.65;;;6.20;99.90;;;;;;4849023;29;20326;-71
2022/01/15 11:24:49;;;;;;;15.27;8.80;;;6.20;99.90;;;;;;4834153;29;20083;-68
2022/01/15 11:27:15;;;;;;;14.25;8.57;;;6.20;99.90;;;;;;4833898;29;20050;-72
2022/01/15 11:29:43;;;;;;;13.85;8.30;;;6.20;99.90;;;;;;4834150;29;20068;-67
2022/01/15 11:32:12;;;;;;;13.85;9.18;;;6.10;99.90;;;;;;4851235;29;20136;-70
2022/01/15 11:34:39;;;;;;;15.32;9.15;;;6.10;99.90;;;;;;4850979;29;20395;-71
2022/01/15 11:37:16;;;;;;;17.40;9.50;;;6.10;99.90;;;;;;4819054;29;20068;-69
2022/01/15 11:39:42;;;;;;;14.68;8.90;;;6.10;99.90;;;;;;4833682;29;20050;-71
2022/01/15 11:42:25;;;;;;;14.63;8.70;;;6.10;99.90;;;;;;4850847;29;20150;-68
2022/01/15 11:44:50;;;;;;;14.95;8.95;;;6.10;99.90;;;;;;4835884;29;20632;-68
2022/01/15 11:47:23;;;;;;;14.20;9.47;;;6.10;99.90;;;;;;4838047;29;20053;-71
2022/01/15 11:49:53;;;;;;;16.30;9.88;;;6.10;99.90;;;;;;4854570;29;20328;-70
2022/01/15 11:52:23;;;;;;;17.98;10.77;;;6.10;99.90;;;;;;4837590;29;20078;-67
2022/01/15 11:54:49;;;;;;;18.13;10.98;;;6.10;99.90;;;;;;4837440;29;20506;-69
2022/01/15 11:57:25;;;;;;;17.80;10.80;;;6.00;99.90;;;;;;4837740;29;20073;-68
2022/01/15 11:59:53;;;;;;;21.08;11.90;;;6.00;99.90;;;;;;4837850;29;20062;-67
2022/01/15 12:02:42;;;;;;;19.10;11.23;;;6.00;99.90;;;;;;4854424;29;20041;-67
2022/01/15 12:05:17;;;;;;;18.52;11.38;;;6.00;99.90;;;;;;4837837;29;20066;-67
2022/01/15 12:07:44;;;;;;;19.50;12.30;;;6.10;99.90;;;;;;4852518;29;20106;-68
2022/01/15 12:10:12;;;;;;;22.05;11.90;;;6.00;99.90;;;;;;4854034;29;20106;-66
2022/01/15 12:12:46;;;;;;;20.27;12.23;;;6.00;99.90;;;;;;4854379;29;20136;-67
2022/01/15 12:15:17;;;;;;;19.83;11.77;;;6.00;99.90;;;;;;4849976;29;20130;-67
2022/01/15 12:17:51;;;;;;;21.80;12.57;;;6.10;99.90;;;;;;4854237;29;20065;-67
2022/01/15 12:20:17;;;;;;;19.90;12.63;;;6.10;99.90;;;;;;4834747;29;20088;-67
2022/01/15 12:22:48;;;;;;;16.23;11.07;;;6.10;99.90;;;;;;4848842;29;20066;-67
2022/01/15 12:25:17;;;;;;;17.25;11.80;;;6.10;99.90;;;;;;4837061;29;20090;-67
2022/01/15 12:27:48;;;;;;;18.70;12.00;;;6.10;99.90;;;;;;4834005;29;20201;-67
2022/01/15 12:30:17;;;;;;;20.50;12.90;;;6.10;99.90;;;;;;4834248;29;20356;-67
2022/01/15 12:32:45;;;;;;;18.77;12.35;;;6.10;99.90;;;;;;4848880;29;20127;-67
2022/01/15 12:35:18;;;;;;;19.98;12.23;;;6.10;99.90;;;;;;4849240;29;20061;-68
2022/01/15 12:38:13;;;;;;;21.23;12.55;;;6.10;99.90;;;;;;4835075;29;20046;-69
2022/01/15 12:40:53;;;;;;;19.45;13.00;;;6.10;99.90;;;;;;4835608;29;20058;-69
2022/01/15 12:43:29;;;;;;;22.38;13.77;;;6.10;99.90;;;;;;4821323;29;20061;-70
2022/01/15 12:46:06;;;;;;;18.40;12.48;;;6.10;99.90;;;;;;4836568;29;20080;-68
2022/01/15 12:48:33;;;;;;;;;;;6.10;99.90;;;;;;4837281;29;20050;-67
2022/01/15 12:51:02;;;;;;;19.73;12.02;;;6.00;99.90;;;;;;4852283;29;19935;-67
2022/01/15 12:53:31;;;;;;;19.67;12.65;;;6.00;99.90;;;;;;4836680;29;20348;-69
2022/01/15 12:55:57;;;;;;;21.67;13.73;;;6.00;99.90;;;;;;4820056;29;20104;-69
2022/01/15 12:58:26;;;;;;;20.33;13.27;;;6.00;99.90;;;;;;4836301;29;20074;-71
2022/01/15 13:00:53;;;;;;;20.48;14.35;;;5.90;99.90;;;;;;4853477;29;20057;-67
2022/01/15 13:03:24;;;;;;;20.85;13.65;;;5.90;99.90;;;;;;4836258;29;20058;-71
2022/01/15 13:05:59;;;;;;;21.38;14.27;;;6.00;99.90;;;;;;4836283;29;20049;-65
2022/01/15 13:08:34;;;;;;;26.83;14.90;;;5.90;99.90;;;;;;4852690;29;20102;-69
2022/01/15 13:11:19;;;;;;;20.35;13.88;;;5.90;99.90;;;;;;4853325;29;20042;-68
2022/01/15 13:13:57;;;;;;;21.70;14.20;;;5.90;99.90;;;;;;4853438;29;20062;-68